sensor_id;sensor_type;location;lat;lon;timestamp;P1;durP1;ratioP1;P2;durP2;ratioP2
18789;SDS011;9523;42.650;23.386;2024-02-26T00:00:30;11.07;;;7.70;;
18789;SDS011;9523;42.650;23.386;2024-02-26T00:02:57;10.40;;;7.73;;
18789;SDS011;9523;42.650;23.386;2024-02-26T00:05:25;11.87;;;7.60;;
18789;SDS011;9523;42.650;23.386;2024-02-26T00:07:52;12.73;;;8.23;;
18789;SDS011;9523;42.650;23.386;2024-02-26T00:10:19;12.87;;;7.50;;
18789;SDS011;9523;42.650;23.386;2024-02-26T00:12:47;11.23;;;7.80;;
18789;SDS011;9523;42.650;23.386;2024-02-26T00:15:15;14.87;;;8.13;;
18789;SDS011;9523;42.650;23.386;2024-02-26T00:17:42;11.67;;;7.63;;
18789;SDS011;9523;42.650;23.386;2024-02-26T00:20:10;14.93;;;8.13;;
18789;SDS011;9523;42.650;23.386;2024-02-26T00:22:41;11.80;;;7.90;;
18789;SDS011;9523;42.650;23.386;2024-02-26T00:25:08;12.57;;;7.83;;
18789;SDS011;9523;42.650;23.386;2024-02-26T00:27:34;15.70;;;8.77;;
18789;SDS011;9523;42.650;23.386;2024-02-26T00:30:01;16.57;;;9.40;;
18789;SDS011;9523;42.650;23.386;2024-02-26T00:32:29;16.37;;;8.47;;
18789;SDS011;9523;42.650;23.386;2024-02-26T00:34:55;15.67;;;8.70;;
18789;SDS011;9523;42.650;23.386;2024-02-26T00:37:22;14.07;;;9.90;;
18789;SDS011;9523;42.650;23.386;2024-02-26T00:39:51;13.47;;;9.53;;
18789;SDS011;9523;42.650;23.386;2024-02-26T00:42:19;16.60;;;10.63;;
18789;SDS011;9523;42.650;23.386;2024-02-26T00:44:46;16.53;;;10.87;;
18789;SDS011;9523;42.650;23.386;2024-02-26T00:47:13;22.93;;;11.10;;
18789;SDS011;9523;42.650;23.386;2024-02-26T00:49:40;17.20;;;11.23;;
18789;SDS011;9523;42.650;23.386;2024-02-26T00:52:07;17.47;;;10.83;;
18789;SDS011;9523;42.650;23.386;2024-02-26T00:54:34;17.77;;;11.50;;
18789;SDS011;9523;42.650;23.386;2024-02-26T00:57:02;17.67;;;12.00;;
18789;SDS011;9523;42.650;23.386;2024-02-26T00:59:29;20.20;;;11.80;;
18789;SDS011;9523;42.650;23.386;2024-02-26T01:01:56;19.00;;;11.33;;
18789;SDS011;9523;42.650;23.386;2024-02-26T01:04:25;18.30;;;11.30;;
18789;SDS011;9523;42.650;23.386;2024-02-26T01:06:52;17.67;;;11.13;;
18789;SDS011;9523;42.650;23.386;2024-02-26T01:09:19;16.30;;;9.53;;
18789;SDS011;9523;42.650;23.386;2024-02-26T01:11:45;15.00;;;10.03;;
18789;SDS011;9523;42.650;23.386;2024-02-26T01:14:14;17.93;;;10.50;;
18789;SDS011;9523;42.650;23.386;2024-02-26T01:16:41;19.13;;;10.97;;
18789;SDS011;9523;42.650;23.386;2024-02-26T01:19:08;16.17;;;9.20;;
18789;SDS011;9523;42.650;23.386;2024-02-26T01:21:35;16.17;;;10.07;;
18789;SDS011;9523;42.650;23.386;2024-02-26T01:24:02;17.20;;;9.03;;
18789;SDS011;9523;42.650;23.386;2024-02-26T01:26:29;15.13;;;9.87;;
18789;SDS011;9523;42.650;23.386;2024-02-26T01:28:56;15.47;;;8.63;;
18789;SDS011;9523;42.650;23.386;2024-02-26T01:31:24;14.27;;;9.00;;
18789;SDS011;9523;42.650;23.386;2024-02-26T01:33:51;16.33;;;8.50;;
18789;SDS011;9523;42.650;23.386;2024-02-26T01:36:18;15.00;;;8.83;;
18789;SDS011;9523;42.650;23.386;2024-02-26T01:38:46;12.17;;;8.40;;
18789;SDS011;9523;42.650;23.386;2024-02-26T01:41:13;14.33;;;8.80;;
18789;SDS011;9523;42.650;23.386;2024-02-26T01:43:40;11.77;;;8.67;;
18789;SDS011;9523;42.650;23.386;2024-02-26T01:46:07;12.60;;;8.50;;
18789;SDS011;9523;42.650;23.386;2024-02-26T01:48:40;14.43;;;9.13;;
18789;SDS011;9523;42.650;23.386;2024-02-26T01:51:07;14.50;;;9.07;;
18789;SDS011;9523;42.650;23.386;2024-02-26T01:53:36;12.87;;;8.40;;
18789;SDS011;9523;42.650;23.386;2024-02-26T01:56:04;14.20;;;9.17;;
18789;SDS011;9523;42.650;23.386;2024-02-26T01:58:31;12.73;;;8.57;;
18789;SDS011;9523;42.650;23.386;2024-02-26T02:00:58;12.93;;;8.83;;
18789;SDS011;9523;42.650;23.386;2024-02-26T02:03:27;14.63;;;9.00;;
18789;SDS011;9523;42.650;23.386;2024-02-26T02:05:56;13.30;;;9.00;;
18789;SDS011;9523;42.650;23.386;2024-02-26T02:08:23;15.63;;;9.13;;
18789;SDS011;9523;42.650;23.386;2024-02-26T02:10:50;14.33;;;8.83;;
18789;SDS011;9523;42.650;23.386;2024-02-26T02:13:17;13.67;;;8.80;;
18789;SDS011;9523;42.650;23.386;2024-02-26T02:15:44;16.33;;;9.00;;
18789;SDS011;9523;42.650;23.386;2024-02-26T02:18:11;13.93;;;9.63;;
18789;SDS011;9523;42.650;23.386;2024-02-26T02:20:40;14.17;;;9.57;;
18789;SDS011;9523;42.650;23.386;2024-02-26T02:23:07;14.17;;;9.70;;
18789;SDS011;9523;42.650;23.386;2024-02-26T02:25:34;14.07;;;9.03;;
18789;SDS011;9523;42.650;23.386;2024-02-26T02:28:01;13.90;;;10.00;;
18789;SDS011;9523;42.650;23.386;2024-02-26T02:30:29;13.27;;;8.87;;
18789;SDS011;9523;42.650;23.386;2024-02-26T02:32:58;14.30;;;9.50;;
18789;SDS011;9523;42.650;23.386;2024-02-26T02:35:25;19.77;;;11.37;;
18789;SDS011;9523;42.650;23.386;2024-02-26T02:37:54;15.07;;;10.60;;
18789;SDS011;9523;42.650;23.386;2024-02-26T02:40:22;14.23;;;10.53;;
18789;SDS011;9523;42.650;23.386;2024-02-26T02:42:49;17.43;;;11.00;;
18789;SDS011;9523;42.650;23.386;2024-02-26T02:45:16;17.13;;;12.30;;
18789;SDS011;9523;42.650;23.386;2024-02-26T02:47:43;19.60;;;11.83;;
18789;SDS011;9523;42.650;23.386;2024-02-26T02:50:10;17.40;;;10.90;;
18789;SDS011;9523;42.650;23.386;2024-02-26T02:52:37;14.93;;;10.40;;
18789;SDS011;9523;42.650;23.386;2024-02-26T02:55:06;13.63;;;9.10;;
18789;SDS011;9523;42.650;23.386;2024-02-26T02:57:33;16.33;;;10.17;;
18789;SDS011;9523;42.650;23.386;2024-02-26T03:00:06;11.40;;;8.67;;
18789;SDS011;9523;42.650;23.386;2024-02-26T03:02:34;14.37;;;9.33;;
18789;SDS011;9523;42.650;23.386;2024-02-26T03:05:02;15.57;;;9.43;;
18789;SDS011;9523;42.650;23.386;2024-02-26T03:07:29;15.93;;;10.27;;
18789;SDS011;9523;42.650;23.386;2024-02-26T03:09:56;14.57;;;9.50;;
18789;SDS011;9523;42.650;23.386;2024-02-26T03:12:24;16.37;;;9.73;;
18789;SDS011;9523;42.650;23.386;2024-02-26T03:14:53;14.53;;;9.40;;
18789;SDS011;9523;42.650;23.386;2024-02-26T03:17:20;15.27;;;9.77;;
18789;SDS011;9523;42.650;23.386;2024-02-26T03:19:49;16.70;;;9.57;;
18789;SDS011;9523;42.650;23.386;2024-02-26T03:22:19;16.13;;;10.17;;
18789;SDS011;9523;42.650;23.386;2024-02-26T03:24:46;20.23;;;10.30;;
18789;SDS011;9523;42.650;23.386;2024-02-26T03:27:13;14.70;;;9.83;;
18789;SDS011;9523;42.650;23.386;2024-02-26T03:29:41;19.73;;;9.87;;
18789;SDS011;9523;42.650;23.386;2024-02-26T03:32:08;20.47;;;10.00;;
18789;SDS011;9523;42.650;23.386;2024-02-26T03:34:36;16.47;;;9.33;;
18789;SDS011;9523;42.650;23.386;2024-02-26T03:37:04;17.37;;;10.13;;
18789;SDS011;9523;42.650;23.386;2024-02-26T03:39:32;14.30;;;9.23;;
18789;SDS011;9523;42.650;23.386;2024-02-26T03:41:59;13.97;;;9.63;;
18789;SDS011;9523;42.650;23.386;2024-02-26T03:44:27;12.63;;;8.97;;
18789;SDS011;9523;42.650;23.386;2024-02-26T03:46:55;15.07;;;9.33;;
18789;SDS011;9523;42.650;23.386;2024-02-26T03:49:22;13.67;;;9.50;;
18789;SDS011;9523;42.650;23.386;2024-02-26T03:51:49;12.97;;;9.03;;
18789;SDS011;9523;42.650;23.386;2024-02-26T03:54:16;14.43;;;9.00;;
18789;SDS011;9523;42.650;23.386;2024-02-26T03:56:43;14.67;;;9.30;;
18789;SDS011;9523;42.650;23.386;2024-02-26T03:59:10;16.10;;;9.60;;
18789;SDS011;9523;42.650;23.386;2024-02-26T04:01:37;18.07;;;9.83;;
18789;SDS011;9523;42.650;23.386;2024-02-26T04:04:05;14.90;;;9.20;;
18789;SDS011;9523;42.650;23.386;2024-02-26T04:06:32;14.50;;;9.10;;
18789;SDS011;9523;42.650;23.386;2024-02-26T04:08:59;15.53;;;8.93;;
18789;SDS011;9523;42.650;23.386;2024-02-26T04:11:29;13.47;;;9.27;;
18789;SDS011;9523;42.650;23.386;2024-02-26T04:13:56;16.60;;;9.70;;
18789;SDS011;9523;42.650;23.386;2024-02-26T04:16:23;15.03;;;9.50;;
18789;SDS011;9523;42.650;23.386;2024-02-26T04:18:50;14.17;;;9.07;;
18789;SDS011;9523;42.650;23.386;2024-02-26T04:21:20;12.10;;;9.10;;
18789;SDS011;9523;42.650;23.386;2024-02-26T04:23:47;14.03;;;9.33;;
18789;SDS011;9523;42.650;23.386;2024-02-26T04:26:14;12.40;;;8.47;;
18789;SDS011;9523;42.650;23.386;2024-02-26T04:28:41;16.23;;;9.73;;
18789;SDS011;9523;42.650;23.386;2024-02-26T04:31:08;17.00;;;9.60;;
18789;SDS011;9523;42.650;23.386;2024-02-26T04:33:35;14.17;;;9.40;;
18789;SDS011;9523;42.650;23.386;2024-02-26T04:36:02;13.63;;;8.30;;
18789;SDS011;9523;42.650;23.386;2024-02-26T04:38:31;14.50;;;9.53;;
18789;SDS011;9523;42.650;23.386;2024-02-26T04:40:58;13.77;;;9.33;;
18789;SDS011;9523;42.650;23.386;2024-02-26T04:43:25;15.30;;;9.80;;
18789;SDS011;9523;42.650;23.386;2024-02-26T04:45:52;16.50;;;9.87;;
18789;SDS011;9523;42.650;23.386;2024-02-26T04:48:22;14.67;;;9.60;;
18789;SDS011;9523;42.650;23.386;2024-02-26T04:50:49;15.53;;;10.30;;
18789;SDS011;9523;42.650;23.386;2024-02-26T04:53:16;15.47;;;9.70;;
18789;SDS011;9523;42.650;23.386;2024-02-26T04:55:44;16.57;;;9.60;;
18789;SDS011;9523;42.650;23.386;2024-02-26T04:58:11;16.40;;;10.10;;
18789;SDS011;9523;42.650;23.386;2024-02-26T05:00:38;18.80;;;11.37;;
18789;SDS011;9523;42.650;23.386;2024-02-26T05:03:06;15.70;;;11.30;;
18789;SDS011;9523;42.650;23.386;2024-02-26T05:05:33;21.20;;;12.67;;
18789;SDS011;9523;42.650;23.386;2024-02-26T05:08:00;20.90;;;14.40;;
18789;SDS011;9523;42.650;23.386;2024-02-26T05:10:28;24.03;;;14.27;;
18789;SDS011;9523;42.650;23.386;2024-02-26T05:12:57;20.83;;;12.40;;
18789;SDS011;9523;42.650;23.386;2024-02-26T05:15:24;22.77;;;13.77;;
18789;SDS011;9523;42.650;23.386;2024-02-26T05:17:51;22.37;;;14.77;;
18789;SDS011;9523;42.650;23.386;2024-02-26T05:20:18;24.67;;;15.43;;
18789;SDS011;9523;42.650;23.386;2024-02-26T05:22:45;28.83;;;17.70;;
18789;SDS011;9523;42.650;23.386;2024-02-26T05:25:14;28.73;;;18.20;;
18789;SDS011;9523;42.650;23.386;2024-02-26T05:27:41;34.37;;;19.17;;
18789;SDS011;9523;42.650;23.386;2024-02-26T05:30:12;33.33;;;19.77;;
18789;SDS011;9523;42.650;23.386;2024-02-26T05:32:39;34.27;;;20.37;;
18789;SDS011;9523;42.650;23.386;2024-02-26T05:35:06;37.17;;;20.53;;
18789;SDS011;9523;42.650;23.386;2024-02-26T05:37:36;33.20;;;19.17;;
18789;SDS011;9523;42.650;23.386;2024-02-26T05:40:04;34.10;;;20.43;;
18789;SDS011;9523;42.650;23.386;2024-02-26T05:42:32;32.47;;;18.77;;
18789;SDS011;9523;42.650;23.386;2024-02-26T05:44:59;34.53;;;20.07;;
18789;SDS011;9523;42.650;23.386;2024-02-26T05:47:32;32.87;;;21.13;;
18789;SDS011;9523;42.650;23.386;2024-02-26T05:49:59;32.57;;;20.73;;
18789;SDS011;9523;42.650;23.386;2024-02-26T05:52:26;28.43;;;18.40;;
18789;SDS011;9523;42.650;23.386;2024-02-26T05:54:54;27.23;;;17.97;;
18789;SDS011;9523;42.650;23.386;2024-02-26T05:57:21;32.00;;;18.63;;
18789;SDS011;9523;42.650;23.386;2024-02-26T05:59:48;31.73;;;17.47;;
18789;SDS011;9523;42.650;23.386;2024-02-26T06:02:15;31.63;;;18.17;;
18789;SDS011;9523;42.650;23.386;2024-02-26T06:04:44;27.17;;;17.73;;
18789;SDS011;9523;42.650;23.386;2024-02-26T06:07:13;26.67;;;18.20;;
18789;SDS011;9523;42.650;23.386;2024-02-26T06:09:40;28.87;;;18.00;;
18789;SDS011;9523;42.650;23.386;2024-02-26T06:12:07;27.57;;;16.20;;
18789;SDS011;9523;42.650;23.386;2024-02-26T06:14:34;22.63;;;14.33;;
18789;SDS011;9523;42.650;23.386;2024-02-26T06:17:01;19.10;;;13.20;;
18789;SDS011;9523;42.650;23.386;2024-02-26T06:19:28;18.77;;;11.27;;
18789;SDS011;9523;42.650;23.386;2024-02-26T06:21:56;22.67;;;11.93;;
18789;SDS011;9523;42.650;23.386;2024-02-26T06:24:23;17.20;;;11.60;;
18789;SDS011;9523;42.650;23.386;2024-02-26T06:26:50;16.87;;;11.23;;
18789;SDS011;9523;42.650;23.386;2024-02-26T06:29:17;20.53;;;11.40;;
18789;SDS011;9523;42.650;23.386;2024-02-26T06:31:44;15.53;;;10.87;;
18789;SDS011;9523;42.650;23.386;2024-02-26T06:34:12;14.60;;;10.67;;
18789;SDS011;9523;42.650;23.386;2024-02-26T06:36:39;18.17;;;11.30;;
18789;SDS011;9523;42.650;23.386;2024-02-26T06:39:08;13.03;;;9.50;;
18789;SDS011;9523;42.650;23.386;2024-02-26T06:41:36;15.43;;;10.70;;
18789;SDS011;9523;42.650;23.386;2024-02-26T06:44:04;15.53;;;10.17;;
18789;SDS011;9523;42.650;23.386;2024-02-26T06:46:31;15.13;;;10.67;;
18789;SDS011;9523;42.650;23.386;2024-02-26T06:48:58;17.70;;;10.27;;
18789;SDS011;9523;42.650;23.386;2024-02-26T06:51:25;16.10;;;10.57;;
18789;SDS011;9523;42.650;23.386;2024-02-26T06:53:52;16.93;;;11.57;;
18789;SDS011;9523;42.650;23.386;2024-02-26T06:56:20;19.17;;;11.30;;
18789;SDS011;9523;42.650;23.386;2024-02-26T06:58:47;17.53;;;12.03;;
18789;SDS011;9523;42.650;23.386;2024-02-26T07:01:14;16.53;;;11.60;;
18789;SDS011;9523;42.650;23.386;2024-02-26T07:03:41;17.77;;;11.87;;
18789;SDS011;9523;42.650;23.386;2024-02-26T07:06:08;19.83;;;11.80;;
18789;SDS011;9523;42.650;23.386;2024-02-26T07:08:37;16.57;;;11.23;;
18789;SDS011;9523;42.650;23.386;2024-02-26T07:11:06;14.93;;;11.40;;
18789;SDS011;9523;42.650;23.386;2024-02-26T07:13:35;17.37;;;11.83;;
18789;SDS011;9523;42.650;23.386;2024-02-26T07:16:02;20.53;;;11.67;;
18789;SDS011;9523;42.650;23.386;2024-02-26T07:18:30;18.40;;;11.77;;
18789;SDS011;9523;42.650;23.386;2024-02-26T07:20:56;20.87;;;11.87;;
18789;SDS011;9523;42.650;23.386;2024-02-26T07:23:23;17.90;;;11.83;;
18789;SDS011;9523;42.650;23.386;2024-02-26T07:25:50;19.90;;;12.37;;
18789;SDS011;9523;42.650;23.386;2024-02-26T07:28:18;18.33;;;12.53;;
18789;SDS011;9523;42.650;23.386;2024-02-26T07:30:46;19.73;;;13.80;;
18789;SDS011;9523;42.650;23.386;2024-02-26T07:33:13;22.90;;;13.30;;
18789;SDS011;9523;42.650;23.386;2024-02-26T07:35:40;20.93;;;13.60;;
18789;SDS011;9523;42.650;23.386;2024-02-26T07:38:07;20.53;;;12.67;;
18789;SDS011;9523;42.650;23.386;2024-02-26T07:40:33;23.43;;;13.30;;
18789;SDS011;9523;42.650;23.386;2024-02-26T07:43:01;15.63;;;11.57;;
18789;SDS011;9523;42.650;23.386;2024-02-26T07:45:28;21.90;;;12.50;;
18789;SDS011;9523;42.650;23.386;2024-02-26T07:47:56;18.60;;;12.30;;
18789;SDS011;9523;42.650;23.386;2024-02-26T07:50:23;20.10;;;12.87;;
18789;SDS011;9523;42.650;23.386;2024-02-26T07:52:50;22.90;;;12.40;;
18789;SDS011;9523;42.650;23.386;2024-02-26T07:55:18;14.23;;;10.93;;
18789;SDS011;9523;42.650;23.386;2024-02-26T07:57:45;16.77;;;11.43;;
18789;SDS011;9523;42.650;23.386;2024-02-26T08:00:12;23.73;;;12.50;;
18789;SDS011;9523;42.650;23.386;2024-02-26T08:02:41;18.27;;;12.93;;
18789;SDS011;9523;42.650;23.386;2024-02-26T08:05:10;24.20;;;12.07;;
18789;SDS011;9523;42.650;23.386;2024-02-26T08:07:37;19.47;;;10.17;;
18789;SDS011;9523;42.650;23.386;2024-02-26T08:10:04;16.60;;;11.37;;
18789;SDS011;9523;42.650;23.386;2024-02-26T08:12:31;24.47;;;12.40;;
18789;SDS011;9523;42.650;23.386;2024-02-26T08:14:58;24.50;;;13.73;;
18789;SDS011;9523;42.650;23.386;2024-02-26T08:17:26;24.67;;;15.03;;
18789;SDS011;9523;42.650;23.386;2024-02-26T08:19:53;27.17;;;14.87;;
18789;SDS011;9523;42.650;23.386;2024-02-26T08:22:22;23.53;;;13.60;;
18789;SDS011;9523;42.650;23.386;2024-02-26T08:24:49;26.53;;;14.37;;
18789;SDS011;9523;42.650;23.386;2024-02-26T08:27:16;29.53;;;14.20;;
18789;SDS011;9523;42.650;23.386;2024-02-26T08:29:43;20.70;;;12.30;;
18789;SDS011;9523;42.650;23.386;2024-02-26T08:32:10;25.87;;;10.63;;
18789;SDS011;9523;42.650;23.386;2024-02-26T08:34:37;15.37;;;8.30;;
18789;SDS011;9523;42.650;23.386;2024-02-26T08:37:05;9.40;;;6.53;;
18789;SDS011;9523;42.650;23.386;2024-02-26T08:39:34;10.13;;;6.80;;
18789;SDS011;9523;42.650;23.386;2024-02-26T08:42:01;9.93;;;6.33;;
18789;SDS011;9523;42.650;23.386;2024-02-26T08:44:28;7.20;;;5.63;;
18789;SDS011;9523;42.650;23.386;2024-02-26T08:46:55;8.13;;;6.27;;
18789;SDS011;9523;42.650;23.386;2024-02-26T08:49:22;9.13;;;6.50;;
18789;SDS011;9523;42.650;23.386;2024-02-26T08:51:49;8.60;;;6.10;;
18789;SDS011;9523;42.650;23.386;2024-02-26T08:54:16;9.20;;;6.17;;
18789;SDS011;9523;42.650;23.386;2024-02-26T08:56:44;8.43;;;6.23;;
18789;SDS011;9523;42.650;23.386;2024-02-26T08:59:11;9.13;;;6.27;;
18789;SDS011;9523;42.650;23.386;2024-02-26T09:01:41;12.47;;;6.23;;
18789;SDS011;9523;42.650;23.386;2024-02-26T09:04:08;12.70;;;7.23;;
18789;SDS011;9523;42.650;23.386;2024-02-26T09:06:35;11.27;;;7.30;;
18789;SDS011;9523;42.650;23.386;2024-02-26T09:09:02;9.33;;;8.03;;
18789;SDS011;9523;42.650;23.386;2024-02-26T09:11:29;13.13;;;7.97;;
18789;SDS011;9523;42.650;23.386;2024-02-26T09:13:58;11.77;;;8.30;;
18789;SDS011;9523;42.650;23.386;2024-02-26T09:16:25;11.53;;;7.60;;
18789;SDS011;9523;42.650;23.386;2024-02-26T09:18:52;12.73;;;6.30;;
18789;SDS011;9523;42.650;23.386;2024-02-26T09:21:19;7.03;;;5.07;;
18789;SDS011;9523;42.650;23.386;2024-02-26T09:23:48;10.13;;;5.53;;
18789;SDS011;9523;42.650;23.386;2024-02-26T09:26:15;6.97;;;5.20;;
18789;SDS011;9523;42.650;23.386;2024-02-26T09:28:43;7.40;;;5.10;;
18789;SDS011;9523;42.650;23.386;2024-02-26T09:31:12;8.33;;;5.10;;
18789;SDS011;9523;42.650;23.386;2024-02-26T09:33:41;7.97;;;5.67;;
18789;SDS011;9523;42.650;23.386;2024-02-26T09:36:08;6.50;;;5.40;;
18789;SDS011;9523;42.650;23.386;2024-02-26T09:38:36;10.13;;;6.03;;
18789;SDS011;9523;42.650;23.386;2024-02-26T09:41:03;9.30;;;5.80;;
18789;SDS011;9523;42.650;23.386;2024-02-26T09:43:33;7.30;;;5.20;;
18789;SDS011;9523;42.650;23.386;2024-02-26T09:46:01;9.77;;;6.10;;
18789;SDS011;9523;42.650;23.386;2024-02-26T09:48:30;8.30;;;5.73;;
18789;SDS011;9523;42.650;23.386;2024-02-26T09:50:59;8.07;;;5.43;;
18789;SDS011;9523;42.650;23.386;2024-02-26T09:53:27;8.77;;;5.87;;
18789;SDS011;9523;42.650;23.386;2024-02-26T09:55:57;7.60;;;5.00;;
18789;SDS011;9523;42.650;23.386;2024-02-26T09:58:24;14.33;;;5.73;;
18789;SDS011;9523;42.650;23.386;2024-02-26T10:00:55;8.77;;;5.73;;
18789;SDS011;9523;42.650;23.386;2024-02-26T10:03:25;9.03;;;5.43;;
18789;SDS011;9523;42.650;23.386;2024-02-26T10:05:58;8.57;;;5.37;;
18789;SDS011;9523;42.650;23.386;2024-02-26T10:08:27;6.90;;;5.07;;
18789;SDS011;9523;42.650;23.386;2024-02-26T10:10:56;8.10;;;5.40;;
18789;SDS011;9523;42.650;23.386;2024-02-26T10:13:23;7.23;;;6.17;;
18789;SDS011;9523;42.650;23.386;2024-02-26T10:15:50;10.63;;;5.70;;
18789;SDS011;9523;42.650;23.386;2024-02-26T10:18:17;11.03;;;6.57;;
18789;SDS011;9523;42.650;23.386;2024-02-26T10:20:50;7.30;;;5.37;;
18789;SDS011;9523;42.650;23.386;2024-02-26T10:23:27;10.83;;;6.07;;
18789;SDS011;9523;42.650;23.386;2024-02-26T10:25:54;6.97;;;5.40;;
18789;SDS011;9523;42.650;23.386;2024-02-26T10:28:22;6.77;;;5.20;;
18789;SDS011;9523;42.650;23.386;2024-02-26T10:30:50;9.73;;;5.33;;
18789;SDS011;9523;42.650;23.386;2024-02-26T10:33:18;7.63;;;5.20;;
18789;SDS011;9523;42.650;23.386;2024-02-26T10:35:45;12.23;;;5.60;;
18789;SDS011;9523;42.650;23.386;2024-02-26T10:38:14;7.23;;;5.87;;
18789;SDS011;9523;42.650;23.386;2024-02-26T10:40:45;7.60;;;5.07;;
18789;SDS011;9523;42.650;23.386;2024-02-26T10:43:12;8.20;;;5.60;;
18789;SDS011;9523;42.650;23.386;2024-02-26T10:45:41;9.07;;;5.90;;
18789;SDS011;9523;42.650;23.386;2024-02-26T10:48:10;7.00;;;5.57;;
18789;SDS011;9523;42.650;23.386;2024-02-26T10:50:38;7.53;;;5.00;;
18789;SDS011;9523;42.650;23.386;2024-02-26T10:53:07;6.43;;;4.97;;
18789;SDS011;9523;42.650;23.386;2024-02-26T10:55:41;7.40;;;4.80;;
18789;SDS011;9523;42.650;23.386;2024-02-26T10:58:12;6.77;;;4.97;;
18789;SDS011;9523;42.650;23.386;2024-02-26T11:00:41;5.80;;;4.90;;
18789;SDS011;9523;42.650;23.386;2024-02-26T11:03:09;6.20;;;4.70;;
18789;SDS011;9523;42.650;23.386;2024-02-26T11:05:38;7.57;;;4.83;;
18789;SDS011;9523;42.650;23.386;2024-02-26T11:08:07;7.87;;;5.13;;
18789;SDS011;9523;42.650;23.386;2024-02-26T11:10:35;6.77;;;5.20;;
18789;SDS011;9523;42.650;23.386;2024-02-26T11:13:06;6.10;;;4.60;;
18789;SDS011;9523;42.650;23.386;2024-02-26T11:15:37;8.23;;;4.97;;
18789;SDS011;9523;42.650;23.386;2024-02-26T11:18:06;7.60;;;5.03;;
18789;SDS011;9523;42.650;23.386;2024-02-26T11:20:34;8.47;;;5.33;;
18789;SDS011;9523;42.650;23.386;2024-02-26T11:23:04;5.90;;;4.90;;
18789;SDS011;9523;42.650;23.386;2024-02-26T11:25:33;7.97;;;5.17;;
18789;SDS011;9523;42.650;23.386;2024-02-26T11:28:01;6.77;;;4.63;;
18789;SDS011;9523;42.650;23.386;2024-02-26T11:30:32;11.83;;;5.10;;
18789;SDS011;9523;42.650;23.386;2024-02-26T11:33:06;7.30;;;4.93;;
18789;SDS011;9523;42.650;23.386;2024-02-26T11:35:34;6.67;;;4.93;;
18789;SDS011;9523;42.650;23.386;2024-02-26T11:38:03;11.40;;;6.17;;
18789;SDS011;9523;42.650;23.386;2024-02-26T11:40:31;7.20;;;5.67;;
18789;SDS011;9523;42.650;23.386;2024-02-26T11:42:59;7.10;;;5.97;;
18789;SDS011;9523;42.650;23.386;2024-02-26T11:48:24;5.20;;;4.70;;
18789;SDS011;9523;42.650;23.386;2024-02-26T11:50:52;7.33;;;4.63;;
18789;SDS011;9523;42.650;23.386;2024-02-26T11:53:24;5.40;;;4.30;;
18789;SDS011;9523;42.650;23.386;2024-02-26T11:58:48;6.40;;;4.53;;
18789;SDS011;9523;42.650;23.386;2024-02-26T12:01:37;7.07;;;4.00;;
18789;SDS011;9523;42.650;23.386;2024-02-26T12:04:12;6.47;;;4.40;;
18789;SDS011;9523;42.650;23.386;2024-02-26T12:06:41;5.83;;;4.17;;
18789;SDS011;9523;42.650;23.386;2024-02-26T12:09:11;6.27;;;4.10;;
18789;SDS011;9523;42.650;23.386;2024-02-26T12:11:38;6.63;;;3.87;;
18789;SDS011;9523;42.650;23.386;2024-02-26T12:14:07;7.50;;;4.10;;
18789;SDS011;9523;42.650;23.386;2024-02-26T12:16:35;5.40;;;4.00;;
18789;SDS011;9523;42.650;23.386;2024-02-26T12:19:05;6.00;;;4.13;;
18789;SDS011;9523;42.650;23.386;2024-02-26T12:21:33;6.27;;;4.30;;
18789;SDS011;9523;42.650;23.386;2024-02-26T12:24:11;7.77;;;4.40;;
18789;SDS011;9523;42.650;23.386;2024-02-26T12:26:41;6.23;;;3.60;;
18789;SDS011;9523;42.650;23.386;2024-02-26T12:29:08;6.57;;;4.10;;
18789;SDS011;9523;42.650;23.386;2024-02-26T12:31:36;6.97;;;3.80;;
18789;SDS011;9523;42.650;23.386;2024-02-26T12:34:05;5.57;;;4.33;;
18789;SDS011;9523;42.650;23.386;2024-02-26T12:36:34;7.00;;;3.90;;
18789;SDS011;9523;42.650;23.386;2024-02-26T12:39:02;8.20;;;4.03;;
18789;SDS011;9523;42.650;23.386;2024-02-26T12:41:30;7.73;;;3.63;;
18789;SDS011;9523;42.650;23.386;2024-02-26T12:43:58;5.70;;;3.70;;
18789;SDS011;9523;42.650;23.386;2024-02-26T12:46:25;6.67;;;3.30;;
18789;SDS011;9523;42.650;23.386;2024-02-26T12:48:54;6.03;;;3.67;;
18789;SDS011;9523;42.650;23.386;2024-02-26T12:51:25;4.70;;;3.83;;
18789;SDS011;9523;42.650;23.386;2024-02-26T12:53:53;5.32;;;3.33;;
18789;SDS011;9523;42.650;23.386;2024-02-26T12:56:22;4.88;;;3.60;;
18789;SDS011;9523;42.650;23.386;2024-02-26T12:58:50;6.18;;;3.58;;
18789;SDS011;9523;42.650;23.386;2024-02-26T13:01:19;5.07;;;3.60;;
18789;SDS011;9523;42.650;23.386;2024-02-26T13:03:49;4.85;;;3.85;;
18789;SDS011;9523;42.650;23.386;2024-02-26T13:06:18;7.88;;;3.80;;
18789;SDS011;9523;42.650;23.386;2024-02-26T13:08:48;5.53;;;3.60;;
18789;SDS011;9523;42.650;23.386;2024-02-26T13:11:15;8.27;;;3.90;;
18789;SDS011;9523;42.650;23.386;2024-02-26T13:13:47;9.80;;;4.20;;
18789;SDS011;9523;42.650;23.386;2024-02-26T13:16:14;6.13;;;4.03;;
18789;SDS011;9523;42.650;23.386;2024-02-26T13:18:42;7.90;;;4.20;;
18789;SDS011;9523;42.650;23.386;2024-02-26T13:21:09;9.07;;;4.23;;
18789;SDS011;9523;42.650;23.386;2024-02-26T13:23:37;5.60;;;3.43;;
18789;SDS011;9523;42.650;23.386;2024-02-26T13:26:06;5.70;;;3.73;;
18789;SDS011;9523;42.650;23.386;2024-02-26T13:28:34;7.37;;;3.93;;
18789;SDS011;9523;42.650;23.386;2024-02-26T13:31:01;5.20;;;3.40;;
18789;SDS011;9523;42.650;23.386;2024-02-26T13:33:30;4.57;;;3.17;;
18789;SDS011;9523;42.650;23.386;2024-02-26T13:35:57;6.53;;;3.53;;
18789;SDS011;9523;42.650;23.386;2024-02-26T13:38:25;6.10;;;3.20;;
18789;SDS011;9523;42.650;23.386;2024-02-26T13:40:52;5.03;;;3.70;;
18789;SDS011;9523;42.650;23.386;2024-02-26T13:43:21;6.67;;;3.30;;
18789;SDS011;9523;42.650;23.386;2024-02-26T13:45:48;7.57;;;3.57;;
18789;SDS011;9523;42.650;23.386;2024-02-26T13:48:15;8.87;;;3.47;;
18789;SDS011;9523;42.650;23.386;2024-02-26T13:50:42;4.27;;;2.93;;
18789;SDS011;9523;42.650;23.386;2024-02-26T13:53:10;5.13;;;3.27;;
18789;SDS011;9523;42.650;23.386;2024-02-26T13:55:37;4.83;;;3.07;;
18789;SDS011;9523;42.650;23.386;2024-02-26T13:58:07;3.97;;;3.23;;
18789;SDS011;9523;42.650;23.386;2024-02-26T14:00:39;4.63;;;3.17;;
18789;SDS011;9523;42.650;23.386;2024-02-26T14:03:06;6.87;;;4.30;;
18789;SDS011;9523;42.650;23.386;2024-02-26T14:05:33;5.30;;;3.73;;
18789;SDS011;9523;42.650;23.386;2024-02-26T14:08:01;5.07;;;3.27;;
18789;SDS011;9523;42.650;23.386;2024-02-26T14:10:28;4.33;;;3.13;;
18789;SDS011;9523;42.650;23.386;2024-02-26T14:12:57;4.80;;;3.40;;
18789;SDS011;9523;42.650;23.386;2024-02-26T14:15:24;5.33;;;3.07;;
18789;SDS011;9523;42.650;23.386;2024-02-26T14:17:53;6.37;;;3.20;;
18789;SDS011;9523;42.650;23.386;2024-02-26T14:20:21;5.57;;;3.00;;
18789;SDS011;9523;42.650;23.386;2024-02-26T14:22:49;5.57;;;3.43;;
18789;SDS011;9523;42.650;23.386;2024-02-26T14:25:18;4.30;;;2.87;;
18789;SDS011;9523;42.650;23.386;2024-02-26T14:27:46;5.63;;;3.20;;
18789;SDS011;9523;42.650;23.386;2024-02-26T14:30:13;6.00;;;3.10;;
18789;SDS011;9523;42.650;23.386;2024-02-26T14:32:40;6.03;;;3.40;;
18789;SDS011;9523;42.650;23.386;2024-02-26T14:35:09;4.23;;;3.20;;
18789;SDS011;9523;42.650;23.386;2024-02-26T14:37:36;6.80;;;3.30;;
18789;SDS011;9523;42.650;23.386;2024-02-26T14:40:03;6.77;;;2.97;;
18789;SDS011;9523;42.650;23.386;2024-02-26T14:42:31;8.10;;;3.10;;
18789;SDS011;9523;42.650;23.386;2024-02-26T14:44:58;8.77;;;3.30;;